MSC Cordoba — A8OF8 — position and weather

sailwx.info

Track history (hours):
 
Tides and Currents Weather Stations Pressure Air Temp Water Temp Dewpoint Dewpoint Depression Visibility Wind Speed Wind Dir Waves Ship Positions

MSC Cordoba

Last reported at 2017-Sep-21 08:30 UTC. Time now 2017-Sep-21 08:54 UTC.
Position N 36°42' E 000°52'.

Length 274 m; draft 11.3 m.

Type: Cargo ship. MMSI: 636091473.

Date/timePositionNaut miles runAvg speedWind from/ knotsBaromVisibWave heightAir tempDewpointWater temp
2017-Sep-21 08:30N 36°42' E 000°52'1121.1
2017-Sep-21 08:00N 36°41' E 000°39'1721.2
2017-Sep-21 07:12N 36°39' E 000°17'621.1
2017-Sep-21 06:55N 36°38' E 000°10'1020.9
2017-Sep-21 06:27N 36°36' W 000°02'920.5
2017-Sep-21 06:00N 36°35' W 000°13'1020.3
2017-Sep-21 05:30N 36°33' W 000°26'1020.3
2017-Sep-21 05:00N 36°32' W 000°38'1520.2
2017-Sep-21 04:17N 36°29' W 000°56'620.6
2017-Sep-21 04:00N 36°28' W 001°03'1220.6
2017-Sep-21 03:25N 36°27' W 001°18'920.9
2017-Sep-21 03:00N 36°26' W 001°29'4721.0
2017-Sep-21 00:46N 36°19' W 002°26'518.3
2017-Sep-21 00:30N 36°19' W 002°32'13421.3
2017-Sep-20 18:14N 35°59' W 005°16'522.2
2017-Sep-20 18:00N 35°58' W 005°22'6121.4
2017-Sep-20 15:09N 36°00' W 006°37'1021.7
2017-Sep-20 14:41N 36°03' W 006°50'2021.1
2017-Sep-20 13:45N 36°08' W 007°13'721.0
2017-Sep-20 13:26N 36°10' W 007°21'921.0
2017-Sep-20 13:00N 36°12' W 007°32'1020.6
2017-Sep-20 12:30N 36°14' W 007°44'917.2
2017-Sep-20 12:00N 36°16' W 007°55'1019.9
2017-Sep-20 11:30N 36°19' W 008°07'1121.7
2017-Sep-20 11:00N 36°22' W 008°20'1121.6
2017-Sep-20 10:30N 36°24' W 008°33'1122.1
2017-Sep-20 10:00N 36°27' W 008°46'1121.8
2017-Sep-20 09:30N 36°30' W 008°59'1122.0
2017-Sep-20 09:00N 36°32' W 009°12'1220.8
2017-Sep-20 08:25N 36°39' W 009°25'921.8
2017-Sep-20 08:00N 36°46' W 009°32'1121.4
2017-Sep-20 07:30N 36°56' W 009°36'1121.9
2017-Sep-20 07:00N 37°07' W 009°40'1121.6
2017-Sep-20 06:29N 37°18' W 009°43'1122.1
2017-Sep-20 05:59N 37°29' W 009°46'1122.2
2017-Sep-20 05:30N 37°39' W 009°49'1121.4
2017-Sep-20 05:00N 37°49' W 009°53'1121.5
2017-Sep-20 04:30N 37°60' W 009°56'1121.7
2017-Sep-20 04:00N 38°10' W 009°59'1121.7
2017-Sep-20 03:30N 38°21' W 010°02'1122.4
2017-Sep-20 03:00N 38°32' W 010°05'1122.1
2017-Sep-20 02:30N 38°43' W 010°07'1122.2
2017-Sep-20 02:00N 38°54' W 010°07'1122.1
2017-Sep-20 01:30N 39°05' W 010°08'1122.0
2017-Sep-20 01:00N 39°16' W 010°09'1121.9
2017-Sep-20 00:30N 39°27' W 010°09'1121.9
2017-Sep-20 00:00N 39°38' W 010°09'1522.1
2017-Sep-19 23:20N 39°53' W 010°08'1022.1
2017-Sep-19 22:53N 40°02' W 010°08'64920.3
2017-Sep-18 14:54N 49°47' W 003°30'820.6
2017-Sep-18 14:30N 49°51' W 003°19'1121.5
2017-Sep-18 14:00N 49°56' W 003°04'1122.4
2017-Sep-18 13:30N 49°59' W 002°48'2823.8
2017-Sep-18 12:21N 50°08' W 002°07'824.7
2017-Sep-18 12:01N 50°10' W 001°54'1224.5
2017-Sep-18 11:30N 50°13' W 001°36'1223.6
2017-Sep-18 11:00N 50°15' W 001°18'3621.8
2017-Sep-18 09:22N 50°25' W 000°24'920.7
2017-Sep-18 08:57N 50°27' W 000°10'920.3
2017-Sep-18 08:30N 50°29' E 000°03'1019.8
2017-Sep-18 08:00N 50°32' E 000°18'1019.4
2017-Sep-18 07:30N 50°34' E 000°33'1019.6
2017-Sep-18 07:01N 50°39' E 000°46'1020.5
2017-Sep-18 06:30N 50°45' E 000°60'1121.8
2017-Sep-18 06:00N 50°51' E 001°14'1223.2
2017-Sep-18 05:28N 51°01' E 001°26'1022.3
2017-Sep-18 05:01N 51°08' E 001°38'1121.2
2017-Sep-18 04:30N 51°16' E 001°49'1019.0
2017-Sep-18 04:01N 51°24' E 001°57'918.0
2017-Sep-18 03:30N 51°22' E 002°11'918.5
2017-Sep-18 03:00N 51°21' E 002°26'1017.7
2017-Sep-18 02:28N 51°23' E 002°41'612.3
2017-Sep-18 01:59N 51°25' E 002°50'816.8
2017-Sep-18 01:30N 51°25' E 003°03'917.3
2017-Sep-18 01:00N 51°25' E 003°17'816.8
2017-Sep-18 00:30N 51°25' E 003°30'510.5
2017-Sep-18 00:00N 51°26' E 003°38'510.4
2017-Sep-17 23:30N 51°23' E 003°44'510.4
2017-Sep-17 23:00N 51°21' E 003°52'5 9.7
2017-Sep-17 22:30N 51°24' E 003°57'3 6.0
2017-Sep-17 22:00N 51°24' E 004°02'5 9.2
2017-Sep-17 21:30N 51°23' E 004°09'4 8.2
2017-Sep-17 21:00N 51°21' E 004°15'3 5.9
2017-Sep-17 20:30N 51°18' E 004°16'0 0.1
2017-Sep-17 19:59N 51°18' E 004°16'0 0.0
2017-Sep-17 19:29N 51°18' E 004°16'0 0.0
2017-Sep-17 18:59N 51°18' E 004°16'0 0.0
2017-Sep-17 18:28N 51°18' E 004°16'0 0.0
2017-Sep-17 17:55N 51°18' E 004°16'0 0.0
2017-Sep-17 17:28N 51°18' E 004°16'0 0.0
2017-Sep-17 16:58N 51°18' E 004°16'0 0.0
2017-Sep-17 16:30N 51°18' E 004°16'0 0.0
2017-Sep-17 16:00N 51°18' E 004°16'0 0.0
2017-Sep-17 15:30N 51°18' E 004°16'0 0.0
2017-Sep-17 15:00N 51°18' E 004°16'0 0.0
2017-Sep-17 14:30N 51°18' E 004°16'0 0.0
2017-Sep-17 13:56N 51°18' E 004°16'0 0.0
2017-Sep-17 13:29N 51°18' E 004°16'0 0.0
2017-Sep-17 12:59N 51°18' E 004°16'0 0.0
2017-Sep-17 12:29N 51°18' E 004°16'0 0.0
2017-Sep-17 11:58N 51°18' E 004°16'0 0.0
2017-Sep-17 11:28N 51°18' E 004°16'0 0.0
2017-Sep-17 10:58N 51°18' E 004°16'0 0.0
2017-Sep-17 10:28N 51°18' E 004°16'0 0.0
2017-Sep-17 09:58N 51°18' E 004°16'0 0.0
2017-Sep-17 09:30N 51°18' E 004°16'0 0.0
2017-Sep-17 09:00N 51°18' E 004°16'0 0.0
2017-Sep-17 08:30N 51°18' E 004°16'0 0.0
2017-Sep-17 08:00N 51°18' E 004°16'0 0.0
2017-Sep-17 07:27N 51°18' E 004°16'0 0.0
2017-Sep-17 06:59N 51°18' E 004°16'0 0.0
2017-Sep-17 06:29N 51°18' E 004°16'0 0.0
2017-Sep-17 05:59N 51°18' E 004°16'0 0.0
2017-Sep-17 05:29N 51°18' E 004°16'0 0.0
2017-Sep-17 04:59N 51°18' E 004°16'0 0.0
2017-Sep-17 04:28N 51°18' E 004°16'0 0.0
2017-Sep-17 03:58N 51°18' E 004°16'0 0.0
2017-Sep-17 03:28N 51°18' E 004°16'0 0.0
2017-Sep-17 02:58N 51°18' E 004°16'0 0.0
2017-Sep-17 02:27N 51°18' E 004°16'0 0.0
2017-Sep-17 02:00N 51°18' E 004°16'0 0.0
2017-Sep-17 01:30N 51°18' E 004°16'0 0.0
2017-Sep-17 01:00N 51°18' E 004°16'0 0.0
2017-Sep-17 00:30N 51°18' E 004°16'0 0.0
2017-Sep-16 23:56N 51°18' E 004°16'0 0.0
2017-Sep-16 23:29N 51°18' E 004°16'0 0.0
2017-Sep-16 22:59N 51°18' E 004°16'0 0.0
2017-Sep-16 22:29N 51°18' E 004°16'0 0.0
2017-Sep-16 21:58N 51°18' E 004°16'0 0.0
2017-Sep-16 21:25N 51°18' E 004°16'0 0.0
2017-Sep-16 20:58N 51°18' E 004°16'0 0.0
2017-Sep-16 20:28N 51°18' E 004°16'0 0.0
2017-Sep-16 19:55N 51°18' E 004°16'0 0.0
2017-Sep-16 19:30N 51°18' E 004°16'0 0.0
2017-Sep-16 19:00N 51°18' E 004°16'0 0.0
2017-Sep-16 18:30N 51°18' E 004°16'0 0.0
2017-Sep-16 18:00N 51°18' E 004°16'0 0.0
2017-Sep-16 17:26N 51°18' E 004°16'0 0.0
2017-Sep-16 16:59N 51°18' E 004°16'0 0.0
2017-Sep-16 16:29N 51°18' E 004°16'0 0.0
2017-Sep-16 15:59N 51°18' E 004°16'0 0.0
2017-Sep-16 15:29N 51°18' E 004°16'0 0.4
2017-Sep-16 15:00N 51°18' E 004°16'2 4.9
2017-Sep-16 14:30N 51°21' E 004°16'4 8.0
2017-Sep-16 14:00N 51°24' E 004°12'5 9.9
2017-Sep-16 13:30N 51°22' E 004°05'4 8.9
2017-Sep-16 13:00N 51°26' E 004°01'4 8.8
2017-Sep-16 12:30N 51°23' E 003°56'5 9.8
2017-Sep-16 12:00N 51°21' E 003°49'611.1
2017-Sep-16 11:30N 51°25' E 003°42'5 9.6
2017-Sep-16 11:00N 51°26' E 003°35'611.3
2017-Sep-16 10:30N 51°25' E 003°26'917.4
2017-Sep-16 10:00N 51°24' E 003°12'817.0
2017-Sep-16 09:30N 51°23' E 002°59'917.1
2017-Sep-16 09:00N 51°22' E 002°45'510.9
2017-Sep-16 08:31N 51°22' E 002°36'1 1.1
2017-Sep-16 08:00N 51°22' E 002°36'1 2.2
2017-Sep-16 07:30N 51°21' E 002°35'1 1.7
2017-Sep-16 07:00N 51°22' E 002°34'4 7.6
2017-Sep-16 06:30N 51°21' E 002°28'4 8.7
2017-Sep-16 06:00N 51°20' E 002°21'4 8.4
2017-Sep-16 05:30N 51°19' E 002°15'4 8.8
2017-Sep-16 05:00N 51°20' E 002°08'5 9.1
2017-Sep-16 04:30N 51°22' E 002°02'5 9.5
2017-Sep-16 04:00N 51°25' E 001°56'510.4
2017-Sep-16 03:30N 51°29' E 001°51'510.5
2017-Sep-16 03:00N 51°34' E 001°48'510.0
2017-Sep-16 02:30N 51°39' E 001°45'510.7
2017-Sep-16 02:00N 51°44' E 001°44'612.4
2017-Sep-16 01:30N 51°50' E 001°42'510.7
2017-Sep-16 01:00N 51°53' E 001°34'510.0
2017-Sep-16 00:30N 51°56' E 001°28'611.9
2017-Sep-16 00:00N 51°56' E 001°19'2 2.7
2017-Sep-15 23:26N 51°57' E 001°18'0 0.0
2017-Sep-15 22:59N 51°57' E 001°18'0 0.0
2017-Sep-15 22:29N 51°57' E 001°18'0 0.0
2017-Sep-15 21:56N 51°57' E 001°18'0 0.0
2017-Sep-15 21:29N 51°57' E 001°18'0 0.0
2017-Sep-15 20:58N 51°57' E 001°18'0 0.0
2017-Sep-15 20:28N 51°57' E 001°18'0 0.0
2017-Sep-15 19:58N 51°57' E 001°18'0 0.0
2017-Sep-15 19:28N 51°57' E 001°18'0 0.0
2017-Sep-15 19:01N 51°57' E 001°18'0 0.0
2017-Sep-15 18:30N 51°57' E 001°18'0 0.0
2017-Sep-15 18:00N 51°57' E 001°18'0 0.0
2017-Sep-15 17:30N 51°57' E 001°18'0 0.0
2017-Sep-15 17:00N 51°57' E 001°18'0 0.0
2017-Sep-15 16:29N 51°57' E 001°18'0 0.0
2017-Sep-15 15:59N 51°57' E 001°18'0 0.0
2017-Sep-15 15:29N 51°57' E 001°18'0 0.0
2017-Sep-15 14:59N 51°57' E 001°18'0 0.0
2017-Sep-15 14:29N 51°57' E 001°18'0 0.0
2017-Sep-15 13:58N 51°57' E 001°18'0 0.0
2017-Sep-15 13:28N 51°57' E 001°18'0 0.0
2017-Sep-15 12:52N 51°57' E 001°18'0 0.0
2017-Sep-15 12:28N 51°57' E 001°18'0 0.0
2017-Sep-15 11:58N 51°57' E 001°18'0 0.0
2017-Sep-15 11:27N 51°57' E 001°18'0 0.0
2017-Sep-15 11:00N 51°57' E 001°18'0 0.0
2017-Sep-15 10:30N 51°57' E 001°18'0 0.0
2017-Sep-15 09:57N 51°57' E 001°18'0 0.0
2017-Sep-15 09:26N 51°57' E 001°18'0 0.0
2017-Sep-15 08:59N 51°57' E 001°18'0 0.0
2017-Sep-15 08:26N 51°57' E 001°18'0 0.0
2017-Sep-15 07:56N 51°57' E 001°18'0 0.0
2017-Sep-15 07:29N 51°57' E 001°18'0 0.0
2017-Sep-15 06:55N 51°57' E 001°18'0 0.0
2017-Sep-15 06:28N 51°57' E 001°18'0 0.0
2017-Sep-15 05:55N 51°57' E 001°18'0 0.0
2017-Sep-15 05:28N 51°57' E 001°18'0 0.0
2017-Sep-15 05:01N 51°57' E 001°18'0 0.0
2017-Sep-15 04:30N 51°57' E 001°18'0 0.0
2017-Sep-15 04:00N 51°57' E 001°18'0 0.0
2017-Sep-15 03:30N 51°57' E 001°18'0 0.0
2017-Sep-15 03:00N 51°57' E 001°18'0 0.0
2017-Sep-15 02:29N 51°57' E 001°18'0 0.0
2017-Sep-15 01:59N 51°57' E 001°18'0 0.0
2017-Sep-15 01:29N 51°57' E 001°18'0 0.0
2017-Sep-15 00:59N 51°57' E 001°18'0 0.0
2017-Sep-15 00:29N 51°57' E 001°18'0 0.0
2017-Sep-14 23:58N 51°57' E 001°18'0 0.0
2017-Sep-14 23:28N 51°57' E 001°18'0 0.0
2017-Sep-14 22:59N 51°57' E 001°18'0 0.2
2017-Sep-14 22:30N 51°57' E 001°18'2 4.5
2017-Sep-14 22:01N 51°55' E 001°20'612.4
2017-Sep-14 21:30N 51°56' E 001°30'612.6
2017-Sep-14 21:00N 51°52' E 001°36'3 6.4
2017-Sep-14 20:30N 51°52' E 001°41'3 6.2
2017-Sep-14 20:00N 51°54' E 001°46'1 2.5
2017-Sep-14 19:30N 51°52' E 001°45'0 0.9
2017-Sep-14 19:00N 51°53' E 001°45'1 1.3
2017-Sep-14 18:30N 51°53' E 001°46'1 1.5
2017-Sep-14 18:00N 51°53' E 001°47'0 0.7
2017-Sep-14 17:30N 51°53' E 001°47'1 2.1
2017-Sep-14 17:00N 51°52' E 001°48'3 6.4
2017-Sep-14 16:30N 51°49' E 001°49'4 7.8
2017-Sep-14 16:00N 51°45' E 001°49'4 7.1
2017-Sep-14 15:30N 51°41' E 001°50'4 8.4
2017-Sep-14 15:00N 51°37' E 001°51'611.3
2017-Sep-14 14:30N 51°32' E 001°54'611.8
2017-Sep-14 14:00N 51°27' E 001°59'510.0
2017-Sep-14 13:30N 51°22' E 001°59'713.1
2017-Sep-14 13:00N 51°17' E 001°54'713.3
2017-Sep-14 12:30N 51°12' E 001°47'713.5
2017-Sep-14 12:00N 51°06' E 001°40'713.5
2017-Sep-14 11:30N 51°01' E 001°33'2013.9
2017-Sep-14 10:05N 50°43' E 001°20'114.0
2017-Sep-14 09:59N 50°42' E 001°19'714.6
2017-Sep-14 09:29N 50°37' E 001°10'714.6
2017-Sep-14 09:00N 50°33' E 001°01'714.5
2017-Sep-14 08:30N 50°30' E 000°51'714.7
2017-Sep-14 07:59N 50°27' E 000°40'714.6
2017-Sep-14 07:30N 50°25' E 000°29'714.5
2017-Sep-14 07:00N 50°23' E 000°19'714.4
2017-Sep-14 06:30N 50°19' E 000°09'714.4
2017-Sep-14 06:00N 50°15' E 000°00'9 0.7
2017-Sep-13 17:07N 50°08' W 000°09'212.9
2017-Sep-13 16:59N 50°09' W 000°11'814.5
2017-Sep-13 16:28N 50°16' W 000°17'2 3.8
2017-Sep-13 16:00N 50°18' W 000°18'713.1
2017-Sep-13 15:27N 50°15' W 000°29'2214.2
2017-Sep-13 13:56N 50°09' W 001°01'715.1
2017-Sep-13 13:27N 50°07' W 001°12'915.4
2017-Sep-13 12:50N 50°05' W 001°27'515.5
2017-Sep-13 12:30N 50°04' W 001°34'815.6
2017-Sep-13 12:00N 50°02' W 001°46'918.5
2017-Sep-13 11:31N 49°60' W 001°60'1018.2
2017-Sep-13 10:58N 49°57' W 002°15'1317.2
2017-Sep-13 10:14N 49°53' W 002°33'516.8
2017-Sep-13 09:57N 49°51' W 002°40'716.6
2017-Sep-13 09:30N 49°49' W 002°51'916.0
2017-Sep-13 08:56N 49°45' W 003°04'715.8
2017-Sep-13 08:30N 49°41' W 003°13'816.7
2017-Sep-13 08:00N 49°37' W 003°24'8118.0
2017-Sep-13 03:28N 48°57' W 005°12'817.0
2017-Sep-13 03:00N 48°52' W 005°22'917.1
2017-Sep-13 02:30N 48°47' W 005°32'51917.6
2017-Sep-11 20:59N 40°41' W 009°51'918.0
2017-Sep-11 20:30N 40°32' W 009°51'1318.0
2017-Sep-11 19:48N 40°20' W 009°51'518.1
2017-Sep-11 19:30N 40°14' W 009°51'918.0
2017-Sep-11 19:00N 40°05' W 009°51'1018.2
2017-Sep-11 18:29N 39°56' W 009°51'3018.2
2017-Sep-11 16:52N 39°26' W 009°53'618.2
2017-Sep-11 16:30N 39°20' W 009°53'918.3
2017-Sep-11 16:00N 39°11' W 009°52'918.3
2017-Sep-11 15:30N 39°02' W 009°52'918.3
2017-Sep-11 15:00N 38°52' W 009°52'918.6
2017-Sep-11 14:30N 38°43' W 009°52'918.0
2017-Sep-11 14:00N 38°34' W 009°49'917.8
2017-Sep-11 13:30N 38°26' W 009°47'918.1
2017-Sep-11 13:00N 38°17' W 009°44'918.0
2017-Sep-11 12:30N 38°08' W 009°42'918.4
2017-Sep-11 12:00N 37°59' W 009°40'918.2
2017-Sep-11 11:30N 37°50' W 009°37'918.0
2017-Sep-11 11:00N 37°41' W 009°35'1217.5
2017-Sep-11 10:19N 37°30' W 009°31'2618.2
2017-Sep-11 08:52N 37°04' W 009°22'718.1
2017-Sep-11 08:30N 36°58' W 009°20'  
Track history (hours):
 
Tides and Currents Weather Stations Pressure Air Temp Water Temp Dewpoint Dewpoint Depression Visibility Wind Speed Wind Dir Waves Ship Positions

MSC Cordoba

Last reported at 2017-Sep-21 08:30 UTC. Time now 2017-Sep-21 08:54 UTC.
Position N 36°42' E 000°52'.

Length 274 m; draft 11.3 m.

Type: Cargo ship. MMSI: 636091473.

Date/timePositionNaut miles runAvg speedWind from/ knotsBaromVisibWave heightAir tempDewpointWater temp
2017-Sep-21 08:30N 36°42' E 000°52'1121.1
2017-Sep-21 08:00N 36°41' E 000°39'1721.2
2017-Sep-21 07:12N 36°39' E 000°17'621.1
2017-Sep-21 06:55N 36°38' E 000°10'1020.9
2017-Sep-21 06:27N 36°36' W 000°02'920.5
2017-Sep-21 06:00N 36°35' W 000°13'1020.3
2017-Sep-21 05:30N 36°33' W 000°26'1020.3
2017-Sep-21 05:00N 36°32' W 000°38'1520.2
2017-Sep-21 04:17N 36°29' W 000°56'620.6
2017-Sep-21 04:00N 36°28' W 001°03'1220.6
2017-Sep-21 03:25N 36°27' W 001°18'920.9
2017-Sep-21 03:00N 36°26' W 001°29'4721.0
2017-Sep-21 00:46N 36°19' W 002°26'518.3
2017-Sep-21 00:30N 36°19' W 002°32'13421.3
2017-Sep-20 18:14N 35°59' W 005°16'522.2
2017-Sep-20 18:00N 35°58' W 005°22'6121.4
2017-Sep-20 15:09N 36°00' W 006°37'1021.7
2017-Sep-20 14:41N 36°03' W 006°50'2021.1
2017-Sep-20 13:45N 36°08' W 007°13'721.0
2017-Sep-20 13:26N 36°10' W 007°21'921.0
2017-Sep-20 13:00N 36°12' W 007°32'1020.6
2017-Sep-20 12:30N 36°14' W 007°44'917.2
2017-Sep-20 12:00N 36°16' W 007°55'1019.9
2017-Sep-20 11:30N 36°19' W 008°07'1121.7
2017-Sep-20 11:00N 36°22' W 008°20'1121.6
2017-Sep-20 10:30N 36°24' W 008°33'1122.1
2017-Sep-20 10:00N 36°27' W 008°46'1121.8
2017-Sep-20 09:30N 36°30' W 008°59'1122.0
2017-Sep-20 09:00N 36°32' W 009°12'1220.8
2017-Sep-20 08:25N 36°39' W 009°25'921.8
2017-Sep-20 08:00N 36°46' W 009°32'1121.4
2017-Sep-20 07:30N 36°56' W 009°36'1121.9
2017-Sep-20 07:00N 37°07' W 009°40'1121.6
2017-Sep-20 06:29N 37°18' W 009°43'1122.1
2017-Sep-20 05:59N 37°29' W 009°46'1122.2
2017-Sep-20 05:30N 37°39' W 009°49'1121.4
2017-Sep-20 05:00N 37°49' W 009°53'1121.5
2017-Sep-20 04:30N 37°60' W 009°56'1121.7
2017-Sep-20 04:00N 38°10' W 009°59'1121.7
2017-Sep-20 03:30N 38°21' W 010°02'1122.4
2017-Sep-20 03:00N 38°32' W 010°05'1122.1
2017-Sep-20 02:30N 38°43' W 010°07'1122.2
2017-Sep-20 02:00N 38°54' W 010°07'1122.1
2017-Sep-20 01:30N 39°05' W 010°08'1122.0
2017-Sep-20 01:00N 39°16' W 010°09'1121.9
2017-Sep-20 00:30N 39°27' W 010°09'1121.9
2017-Sep-20 00:00N 39°38' W 010°09'1522.1
2017-Sep-19 23:20N 39°53' W 010°08'1022.1
2017-Sep-19 22:53N 40°02' W 010°08'64920.3
2017-Sep-18 14:54N 49°47' W 003°30'820.6
2017-Sep-18 14:30N 49°51' W 003°19'1121.5
2017-Sep-18 14:00N 49°56' W 003°04'1122.4
2017-Sep-18 13:30N 49°59' W 002°48'2823.8
2017-Sep-18 12:21N 50°08' W 002°07'824.7
2017-Sep-18 12:01N 50°10' W 001°54'1224.5
2017-Sep-18 11:30N 50°13' W 001°36'1223.6
2017-Sep-18 11:00N 50°15' W 001°18'3621.8
2017-Sep-18 09:22N 50°25' W 000°24'920.7
2017-Sep-18 08:57N 50°27' W 000°10'920.3
2017-Sep-18 08:30N 50°29' E 000°03'1019.8
2017-Sep-18 08:00N 50°32' E 000°18'1019.4
2017-Sep-18 07:30N 50°34' E 000°33'1019.6
2017-Sep-18 07:01N 50°39' E 000°46'1020.5
2017-Sep-18 06:30N 50°45' E 000°60'1121.8
2017-Sep-18 06:00N 50°51' E 001°14'1223.2
2017-Sep-18 05:28N 51°01' E 001°26'1022.3
2017-Sep-18 05:01N 51°08' E 001°38'1121.2
2017-Sep-18 04:30N 51°16' E 001°49'1019.0
2017-Sep-18 04:01N 51°24' E 001°57'918.0
2017-Sep-18 03:30N 51°22' E 002°11'918.5
2017-Sep-18 03:00N 51°21' E 002°26'1017.7
2017-Sep-18 02:28N 51°23' E 002°41'612.3
2017-Sep-18 01:59N 51°25' E 002°50'816.8
2017-Sep-18 01:30N 51°25' E 003°03'917.3
2017-Sep-18 01:00N 51°25' E 003°17'816.8
2017-Sep-18 00:30N 51°25' E 003°30'510.5
2017-Sep-18 00:00N 51°26' E 003°38'510.4
2017-Sep-17 23:30N 51°23' E 003°44'510.4
2017-Sep-17 23:00N 51°21' E 003°52'5 9.7
2017-Sep-17 22:30N 51°24' E 003°57'3 6.0
2017-Sep-17 22:00N 51°24' E 004°02'5 9.2
2017-Sep-17 21:30N 51°23' E 004°09'4 8.2
2017-Sep-17 21:00N 51°21' E 004°15'3 5.9
2017-Sep-17 20:30N 51°18' E 004°16'0 0.1
2017-Sep-17 19:59N 51°18' E 004°16'0 0.0
2017-Sep-17 19:29N 51°18' E 004°16'0 0.0
2017-Sep-17 18:59N 51°18' E 004°16'0 0.0
2017-Sep-17 18:28N 51°18' E 004°16'0 0.0
2017-Sep-17 17:55N 51°18' E 004°16'0 0.0
2017-Sep-17 17:28N 51°18' E 004°16'0 0.0
2017-Sep-17 16:58N 51°18' E 004°16'0 0.0
2017-Sep-17 16:30N 51°18' E 004°16'0 0.0
2017-Sep-17 16:00N 51°18' E 004°16'0 0.0
2017-Sep-17 15:30N 51°18' E 004°16'0 0.0
2017-Sep-17 15:00N 51°18' E 004°16'0 0.0
2017-Sep-17 14:30N 51°18' E 004°16'0 0.0
2017-Sep-17 13:56N 51°18' E 004°16'0 0.0
2017-Sep-17 13:29N 51°18' E 004°16'0 0.0
2017-Sep-17 12:59N 51°18' E 004°16'0 0.0
2017-Sep-17 12:29N 51°18' E 004°16'0 0.0
2017-Sep-17 11:58N 51°18' E 004°16'0 0.0
2017-Sep-17 11:28N 51°18' E 004°16'0 0.0
2017-Sep-17 10:58N 51°18' E 004°16'0 0.0
2017-Sep-17 10:28N 51°18' E 004°16'0 0.0
2017-Sep-17 09:58N 51°18' E 004°16'0 0.0
2017-Sep-17 09:30N 51°18' E 004°16'0 0.0
2017-Sep-17 09:00N 51°18' E 004°16'0 0.0
2017-Sep-17 08:30N 51°18' E 004°16'0 0.0
2017-Sep-17 08:00N 51°18' E 004°16'0 0.0
2017-Sep-17 07:27N 51°18' E 004°16'0 0.0
2017-Sep-17 06:59N 51°18' E 004°16'0 0.0
2017-Sep-17 06:29N 51°18' E 004°16'0 0.0
2017-Sep-17 05:59N 51°18' E 004°16'0 0.0
2017-Sep-17 05:29N 51°18' E 004°16'0 0.0
2017-Sep-17 04:59N 51°18' E 004°16'0 0.0
2017-Sep-17 04:28N 51°18' E 004°16'0 0.0
2017-Sep-17 03:58N 51°18' E 004°16'0 0.0
2017-Sep-17 03:28N 51°18' E 004°16'0 0.0
2017-Sep-17 02:58N 51°18' E 004°16'0 0.0
2017-Sep-17 02:27N 51°18' E 004°16'0 0.0
2017-Sep-17 02:00N 51°18' E 004°16'0 0.0
2017-Sep-17 01:30N 51°18' E 004°16'0 0.0
2017-Sep-17 01:00N 51°18' E 004°16'0 0.0
2017-Sep-17 00:30N 51°18' E 004°16'0 0.0
2017-Sep-16 23:56N 51°18' E 004°16'0 0.0
2017-Sep-16 23:29N 51°18' E 004°16'0 0.0
2017-Sep-16 22:59N 51°18' E 004°16'0 0.0
2017-Sep-16 22:29N 51°18' E 004°16'0 0.0
2017-Sep-16 21:58N 51°18' E 004°16'0 0.0
2017-Sep-16 21:25N 51°18' E 004°16'0 0.0
2017-Sep-16 20:58N 51°18' E 004°16'0 0.0
2017-Sep-16 20:28N 51°18' E 004°16'0 0.0
2017-Sep-16 19:55N 51°18' E 004°16'0 0.0
2017-Sep-16 19:30N 51°18' E 004°16'0 0.0
2017-Sep-16 19:00N 51°18' E 004°16'0 0.0
2017-Sep-16 18:30N 51°18' E 004°16'0 0.0
2017-Sep-16 18:00N 51°18' E 004°16'0 0.0
2017-Sep-16 17:26N 51°18' E 004°16'0 0.0
2017-Sep-16 16:59N 51°18' E 004°16'0 0.0
2017-Sep-16 16:29N 51°18' E 004°16'0 0.0
2017-Sep-16 15:59N 51°18' E 004°16'0 0.0
2017-Sep-16 15:29N 51°18' E 004°16'0 0.4
2017-Sep-16 15:00N 51°18' E 004°16'2 4.9
2017-Sep-16 14:30N 51°21' E 004°16'4 8.0
2017-Sep-16 14:00N 51°24' E 004°12'5 9.9
2017-Sep-16 13:30N 51°22' E 004°05'4 8.9
2017-Sep-16 13:00N 51°26' E 004°01'4 8.8
2017-Sep-16 12:30N 51°23' E 003°56'5 9.8
2017-Sep-16 12:00N 51°21' E 003°49'611.1
2017-Sep-16 11:30N 51°25' E 003°42'5 9.6
2017-Sep-16 11:00N 51°26' E 003°35'611.3
2017-Sep-16 10:30N 51°25' E 003°26'917.4
2017-Sep-16 10:00N 51°24' E 003°12'817.0
2017-Sep-16 09:30N 51°23' E 002°59'917.1
2017-Sep-16 09:00N 51°22' E 002°45'510.9
2017-Sep-16 08:31N 51°22' E 002°36'1 1.1
2017-Sep-16 08:00N 51°22' E 002°36'1 2.2
2017-Sep-16 07:30N 51°21' E 002°35'1 1.7
2017-Sep-16 07:00N 51°22' E 002°34'4 7.6
2017-Sep-16 06:30N 51°21' E 002°28'4 8.7
2017-Sep-16 06:00N 51°20' E 002°21'4 8.4
2017-Sep-16 05:30N 51°19' E 002°15'4 8.8
2017-Sep-16 05:00N 51°20' E 002°08'5 9.1
2017-Sep-16 04:30N 51°22' E 002°02'5 9.5
2017-Sep-16 04:00N 51°25' E 001°56'510.4
2017-Sep-16 03:30N 51°29' E 001°51'510.5
2017-Sep-16 03:00N 51°34' E 001°48'510.0
2017-Sep-16 02:30N 51°39' E 001°45'510.7
2017-Sep-16 02:00N 51°44' E 001°44'612.4
2017-Sep-16 01:30N 51°50' E 001°42'510.7
2017-Sep-16 01:00N 51°53' E 001°34'510.0
2017-Sep-16 00:30N 51°56' E 001°28'611.9
2017-Sep-16 00:00N 51°56' E 001°19'2 2.7
2017-Sep-15 23:26N 51°57' E 001°18'0 0.0
2017-Sep-15 22:59N 51°57' E 001°18'0 0.0
2017-Sep-15 22:29N 51°57' E 001°18'0 0.0
2017-Sep-15 21:56N 51°57' E 001°18'0 0.0
2017-Sep-15 21:29N 51°57' E 001°18'0 0.0
2017-Sep-15 20:58N 51°57' E 001°18'0 0.0
2017-Sep-15 20:28N 51°57' E 001°18'0 0.0
2017-Sep-15 19:58N 51°57' E 001°18'0 0.0
2017-Sep-15 19:28N 51°57' E 001°18'0 0.0
2017-Sep-15 19:01N 51°57' E 001°18'0 0.0
2017-Sep-15 18:30N 51°57' E 001°18'0 0.0
2017-Sep-15 18:00N 51°57' E 001°18'0 0.0
2017-Sep-15 17:30N 51°57' E 001°18'0 0.0
2017-Sep-15 17:00N 51°57' E 001°18'0 0.0
2017-Sep-15 16:29N 51°57' E 001°18'0 0.0
2017-Sep-15 15:59N 51°57' E 001°18'0 0.0
2017-Sep-15 15:29N 51°57' E 001°18'0 0.0
2017-Sep-15 14:59N 51°57' E 001°18'0 0.0
2017-Sep-15 14:29N 51°57' E 001°18'0 0.0
2017-Sep-15 13:58N 51°57' E 001°18'0 0.0
2017-Sep-15 13:28N 51°57' E 001°18'0 0.0
2017-Sep-15 12:52N 51°57' E 001°18'0 0.0
2017-Sep-15 12:28N 51°57' E 001°18'0 0.0
2017-Sep-15 11:58N 51°57' E 001°18'0 0.0
2017-Sep-15 11:27N 51°57' E 001°18'0 0.0
2017-Sep-15 11:00N 51°57' E 001°18'0 0.0
2017-Sep-15 10:30N 51°57' E 001°18'0 0.0
2017-Sep-15 09:57N 51°57' E 001°18'0 0.0
2017-Sep-15 09:26N 51°57' E 001°18'0 0.0
2017-Sep-15 08:59N 51°57' E 001°18'0 0.0
2017-Sep-15 08:26N 51°57' E 001°18'0 0.0
2017-Sep-15 07:56N 51°57' E 001°18'0 0.0
2017-Sep-15 07:29N 51°57' E 001°18'0 0.0
2017-Sep-15 06:55N 51°57' E 001°18'0 0.0
2017-Sep-15 06:28N 51°57' E 001°18'0 0.0
2017-Sep-15 05:55N 51°57' E 001°18'0 0.0
2017-Sep-15 05:28N 51°57' E 001°18'0 0.0
2017-Sep-15 05:01N 51°57' E 001°18'0 0.0
2017-Sep-15 04:30N 51°57' E 001°18'0 0.0
2017-Sep-15 04:00N 51°57' E 001°18'0 0.0
2017-Sep-15 03:30N 51°57' E 001°18'0 0.0
2017-Sep-15 03:00N 51°57' E 001°18'0 0.0
2017-Sep-15 02:29N 51°57' E 001°18'0 0.0
2017-Sep-15 01:59N 51°57' E 001°18'0 0.0
2017-Sep-15 01:29N 51°57' E 001°18'0 0.0
2017-Sep-15 00:59N 51°57' E 001°18'0 0.0
2017-Sep-15 00:29N 51°57' E 001°18'0 0.0
2017-Sep-14 23:58N 51°57' E 001°18'0 0.0
2017-Sep-14 23:28N 51°57' E 001°18'0 0.0
2017-Sep-14 22:59N 51°57' E 001°18'0 0.2
2017-Sep-14 22:30N 51°57' E 001°18'2 4.5
2017-Sep-14 22:01N 51°55' E 001°20'612.4
2017-Sep-14 21:30N 51°56' E 001°30'612.6
2017-Sep-14 21:00N 51°52' E 001°36'3 6.4
2017-Sep-14 20:30N 51°52' E 001°41'3 6.2
2017-Sep-14 20:00N 51°54' E 001°46'1 2.5
2017-Sep-14 19:30N 51°52' E 001°45'0 0.9
2017-Sep-14 19:00N 51°53' E 001°45'1 1.3
2017-Sep-14 18:30N 51°53' E 001°46'1 1.5
2017-Sep-14 18:00N 51°53' E 001°47'0 0.7
2017-Sep-14 17:30N 51°53' E 001°47'1 2.1
2017-Sep-14 17:00N 51°52' E 001°48'3 6.4
2017-Sep-14 16:30N 51°49' E 001°49'4 7.8
2017-Sep-14 16:00N 51°45' E 001°49'4 7.1
2017-Sep-14 15:30N 51°41' E 001°50'4 8.4
2017-Sep-14 15:00N 51°37' E 001°51'611.3
2017-Sep-14 14:30N 51°32' E 001°54'611.8
2017-Sep-14 14:00N 51°27' E 001°59'510.0
2017-Sep-14 13:30N 51°22' E 001°59'713.1
2017-Sep-14 13:00N 51°17' E 001°54'713.3
2017-Sep-14 12:30N 51°12' E 001°47'713.5
2017-Sep-14 12:00N 51°06' E 001°40'713.5
2017-Sep-14 11:30N 51°01' E 001°33'2013.9
2017-Sep-14 10:05N 50°43' E 001°20'114.0
2017-Sep-14 09:59N 50°42' E 001°19'714.6
2017-Sep-14 09:29N 50°37' E 001°10'714.6
2017-Sep-14 09:00N 50°33' E 001°01'714.5
2017-Sep-14 08:30N 50°30' E 000°51'714.7
2017-Sep-14 07:59N 50°27' E 000°40'714.6
2017-Sep-14 07:30N 50°25' E 000°29'714.5
2017-Sep-14 07:00N 50°23' E 000°19'714.4
2017-Sep-14 06:30N 50°19' E 000°09'714.4
2017-Sep-14 06:00N 50°15' E 000°00'9 0.7
2017-Sep-13 17:07N 50°08' W 000°09'212.9
2017-Sep-13 16:59N 50°09' W 000°11'814.5
2017-Sep-13 16:28N 50°16' W 000°17'2 3.8
2017-Sep-13 16:00N 50°18' W 000°18'713.1
2017-Sep-13 15:27N 50°15' W 000°29'2214.2
2017-Sep-13 13:56N 50°09' W 001°01'715.1
2017-Sep-13 13:27N 50°07' W 001°12'915.4
2017-Sep-13 12:50N 50°05' W 001°27'515.5
2017-Sep-13 12:30N 50°04' W 001°34'815.6
2017-Sep-13 12:00N 50°02' W 001°46'918.5
2017-Sep-13 11:31N 49°60' W 001°60'1018.2
2017-Sep-13 10:58N 49°57' W 002°15'1317.2
2017-Sep-13 10:14N 49°53' W 002°33'516.8
2017-Sep-13 09:57N 49°51' W 002°40'716.6
2017-Sep-13 09:30N 49°49' W 002°51'916.0
2017-Sep-13 08:56N 49°45' W 003°04'715.8
2017-Sep-13 08:30N 49°41' W 003°13'816.7
2017-Sep-13 08:00N 49°37' W 003°24'8118.0
2017-Sep-13 03:28N 48°57' W 005°12'817.0
2017-Sep-13 03:00N 48°52' W 005°22'917.1
2017-Sep-13 02:30N 48°47' W 005°32'51917.6
2017-Sep-11 20:59N 40°41' W 009°51'918.0
2017-Sep-11 20:30N 40°32' W 009°51'1318.0
2017-Sep-11 19:48N 40°20' W 009°51'518.1
2017-Sep-11 19:30N 40°14' W 009°51'918.0
2017-Sep-11 19:00N 40°05' W 009°51'1018.2
2017-Sep-11 18:29N 39°56' W 009°51'3018.2
2017-Sep-11 16:52N 39°26' W 009°53'618.2
2017-Sep-11 16:30N 39°20' W 009°53'918.3
2017-Sep-11 16:00N 39°11' W 009°52'918.3
2017-Sep-11 15:30N 39°02' W 009°52'918.3
2017-Sep-11 15:00N 38°52' W 009°52'918.6
2017-Sep-11 14:30N 38°43' W 009°52'918.0
2017-Sep-11 14:00N 38°34' W 009°49'917.8
2017-Sep-11 13:30N 38°26' W 009°47'918.1
2017-Sep-11 13:00N 38°17' W 009°44'918.0
2017-Sep-11 12:30N 38°08' W 009°42'918.4
2017-Sep-11 12:00N 37°59' W 009°40'918.2
2017-Sep-11 11:30N 37°50' W 009°37'918.0
2017-Sep-11 11:00N 37°41' W 009°35'1217.5
2017-Sep-11 10:19N 37°30' W 009°31'2618.2
2017-Sep-11 08:52N 37°04' W 009°22'718.1
2017-Sep-11 08:30N 36°58' W 009°20'  

Dump ship's entire track history